レシフェ の空港の天気 - METARとTAF

レシフェ・グアララペス国際空港 ( SBRF / REC ) - ブラジル ペルナンブーコ州レシフェ
飛行場実況気象(Metar)
観測時間04/26 13:00 BRT (04/26 16:00 UTC)
風向・風速南東 5m/s
視程10km以上
天気現象
全天の4割程度の雲 雲底高度 760m
気温30℃
湿度62%
気圧1013hPa
METARSBRF 261600Z 14010KT 090V170 9999 SCT025 30/22 Q1013
過去の天気等 Google飛行場航空写真 Wunderground天気予報

過去48時間のMETAR

飛行場予報(TAF)
発表時間: 4/26 07:00 BRT (4/26 10:00 UTC)
予報対象時間: 26日9時 BRT ~ 27日9時 BRT
風向・風速南南東 4m/s
視程10km以上
全天の4割程度の雲 雲底高度 760m
26日13時 BRT ~ 26日15時 BRT に徐々に
風向・風速東南東 4m/s
26日17時 BRT ~ 26日19時 BRT に徐々に
少しの雲 雲底高度 760m
26日23時 BRT ~ 27日1時 BRT に徐々に
全天の4割程度の雲 雲底高度 760m
TAF SBRF 261000Z 2612/2712 15008KT 9999 SCT025 TX29/2616Z TN25/2708Z
BECMG 2616/2618 12008KT
BECMG 2620/2622 FEW025
BECMG 2702/2704 SCT025 RMK PFN